Terminal Aerodrome Forecast
Issued by NWS

Home | Current Version | Previous Version | Text Only | Print | Product List | Glossary On
Versions: 1 2 3 4 5 6 7 8 9 10 11 12 13 14 15 16 17 18 19 20 21 22 23 24 25 26 27 28 29 30 31 32 33 34 35 36 37 38 39 40
000
FTUS45 KGJT 011141
TAFTEX
TAF
KTEX 011141Z 0112/0212 14005KT P6SM VCSH SCT045 OVC080
      TEMPO 0112/0116 -SHRA BKN045
     FM011600 24009G16KT P6SM -SHRA VCTS SCT025 OVC045CB
     FM020200 28006KT P6SM VCSH SCT045 BKN070
     FM020600 26006KT P6SM FEW070=

USA.gov is the U.S. government's official web portal to all federal, state and local government web resources and services.